Latest Weather Observations for Warrnambool

IDV60801

Issued at 5:33 am EDT Monday 20 February 2017 (issued every 30 minutes, with the page automatically refreshed every 10 minutes)

About weather observations | Map of weather stations | Latest weather observations for VIC | Other Formats
Station Details ID: 090186 Name: WARRNAMBOOL AIRPORT NDB Lat: -38.29 Lon: 142.45 Height: 70.8 m
Data from the previous 72 hours. | See also: Recent months at Warrnambool
Date/Time
EDT
Temp
°C
App
Temp
°C
Dew
Point
°C
Rel
Hum
%
Delta-T
°C
Wind Press
QNH
hPa
Press
MSL
hPa
Rain since
9am
mm
Dir  Spd
km/h
Gust
km/h
Spd
kts
Gust
kts
20/05:30am 12.6 7.0 10.0 84 1.3 SSW 30 35 16 19 1012.9 1012.7 8.0
20/05:00am 12.9 7.0 9.0 77 2.0 SW 30 39 16 21 1012.6 1012.5 8.0
20/04:30am 12.7 7.4 9.7 82 1.5 SW 28 37 15 20 1012.6 1012.5 8.0
20/04:00am 12.5 7.9 9.5 82 1.5 SW 24 35 13 19 1012.4 1012.3 8.0
20/03:30am 12.1 8.5 10.5 90 0.8 WSW 20 30 11 16 1012.3 1012.2 8.0
20/03:08am 11.6 5.6 10.0 90 0.8 SW 32 50 17 27 1012.4 1012.3 8.0
20/03:00am 12.0 7.2 10.4 90 0.8 SW 26 50 14 27 1012.4 1012.3 7.4
20/02:59am 12.1 7.7 10.3 89 0.9 SW 24 50 13 27 1012.4 1012.3 7.4
20/02:42am 11.5 8.0 10.1 91 0.7 WSW 19 24 10 13 1012.2 1012.1 7.4
20/02:30am 11.4 4.7 9.8 90 0.8 SW 35 59 19 32 1012.4 1012.3 7.4
20/02:29am 11.4 4.7 9.8 90 0.8 SW 35 59 19 32 1012.4 1012.3 7.4
20/02:22am 12.6 7.3 9.8 83 1.4 SW 28 54 15 29 1012.4 1012.3 7.0
20/02:00am 12.3 7.1 8.8 79 1.8 SW 26 33 14 18 1012.4 1012.3 7.0
20/01:30am 12.2 6.9 9.8 85 1.2 SW 28 35 15 19 1012.5 1012.4 7.0
20/01:00am 13.0 7.6 8.1 72 2.4 SW 26 35 14 19 1012.5 1012.4 6.8
20/12:30am 12.7 7.0 8.2 74 2.2 SW 28 37 15 20 1012.6 1012.5 6.8
20/12:00am 12.8 6.7 8.1 73 2.3 SW 30 39 16 21 1012.5 1012.4 6.8
 
Date/Time
EDT
Temp
°C
App
Temp
°C
Dew
Point
°C
Rel
Hum
%
Delta-T
°C
Wind Press
QNH
hPa
Press
MSL
hPa
Rain since
9am
mm
Dir  Spd
km/h
Gust
km/h
Spd
kts
Gust
kts
19/11:30pm 13.0 7.4 8.7 75 2.2 SW 28 35 15 19 1012.5 1012.4 6.8
19/11:00pm 12.8 7.6 8.7 76 2.1 SW 26 35 14 19 1012.6 1012.5 6.8
19/10:30pm 12.7 6.0 7.4 70 2.6 SW 32 41 17 22 1012.6 1012.5 6.8
19/10:00pm 12.4 7.6 8.9 79 1.8 SW 24 35 13 19 1012.3 1012.2 6.8
19/09:30pm 12.4 6.5 7.7 73 2.3 SW 28 37 15 20 1012.1 1012.0 6.8
19/09:00pm 12.6 7.7 8.5 76 2.0 SW 24 35 13 19 1011.8 1011.7 6.8
19/08:30pm 12.5 6.9 8.8 78 1.9 SW 28 35 15 19 1011.5 1011.4 6.8
19/08:00pm 13.0 6.8 9.3 78 1.9 SW 32 41 17 22 1011.2 1011.1 6.8
19/07:30pm 13.9 8.1 9.3 74 2.4 WSW 30 39 16 21 1010.8 1010.7 6.8
19/07:00pm 13.6 6.8 7.6 67 3.0 SW 33 43 18 23 1010.6 1010.5 6.8
19/06:30pm 14.4 6.5 7.7 64 3.3 SW 39 50 21 27 1010.4 1010.3 6.8
19/06:00pm 14.7 7.0 8.6 67 3.1 SW 39 50 21 27 1010.2 1010.1 6.8
19/05:30pm 14.0 8.1 9.2 73 2.5 SW 30 41 16 22 1009.9 1009.7 6.8
19/05:00pm 15.1 7.4 8.8 66 3.2 SW 39 52 21 28 1009.9 1009.7 6.8
19/04:30pm 14.2 7.3 9.0 71 2.6 SW 35 52 19 28 1009.9 1009.7 6.8
19/04:00pm 12.9 5.0 9.4 79 1.8 SW 41 52 22 28 1010.1 1010.0 6.8
19/03:30pm 14.5 6.9 8.9 69 2.9 SW 39 61 21 33 1010.0 1009.8 5.8
19/03:24pm 14.7 6.8 10.7 77 2.1 SW 43 61 23 33 1010.0 1009.8 5.8
19/03:00pm 14.0 8.1 10.4 79 1.9 WSW 32 48 17 26 1010.0 1009.8 5.8
19/02:58pm 14.3 8.9 10.9 80 1.8 WSW 30 48 16 26 1010.0 1009.8 5.8
19/02:55pm 13.8 9.0 11.7 87 1.1 WSW 28 39 15 21 1010.0 1009.8 5.8
19/02:37pm 10.3 3.8 8.2 87 1.0 WSW 32 54 17 29 1010.6 1010.5 5.6
19/02:34pm 11.2 5.7 9.1 87 1.1 WSW 28 54 15 29 1010.7 1010.6 4.8
19/02:30pm 11.8 6.5 9.9 88 1.0 WSW 28 43 15 23 1010.4 1010.3 4.4
19/02:03pm 15.4 8.6 9.3 67 3.2 WSW 35 54 19 29 1009.8 1009.6 3.8
19/02:00pm 15.2 8.6 10.0 71 2.7 WSW 35 44 19 24 1009.8 1009.6 3.8
19/01:32pm 13.9 7.8 10.3 79 1.9 WSW 33 52 18 28 1010.0 1009.8 3.8
19/01:30pm 14.1 8.5 10.3 78 2.0 WSW 30 43 16 23 1010.0 1009.8 3.8
19/01:25pm 13.4 9.5 10.9 85 1.3 WSW 22 37 12 20 1010.2 1010.1 3.8
19/01:07pm 10.2 3.3 7.4 83 1.3 WSW 33 65 18 35 1010.5 1010.4 3.8
19/01:06pm 10.4 3.7 7.5 82 1.4 WSW 32 65 17 35 1010.7 1010.6 3.6
19/01:03pm 14.5 8.9 8.9 69 2.9 WSW 28 65 15 35 1010.4 1010.3 2.0
19/01:00pm 15.8 11.2 11.0 73 2.6 WSW 26 35 14 19 1010.2 1010.1 2.0
19/12:33pm 12.1 3.7 9.5 84 1.3 SW 44 63 24 34 1010.7 1010.6 1.6
19/12:30pm 13.0 3.4 8.1 72 2.4 SW 48 63 26 34 1010.7 1010.6 1.6
19/12:16pm 15.1 6.5 8.3 64 3.4 SW 43 61 23 33 1010.5 1010.4 1.6
19/12:00pm 16.3 9.6 9.7 65 3.5 WSW 35 48 19 26 1010.5 1010.4 1.6
19/11:30am 14.0 7.1 7.1 63 3.4 SW 33 44 18 24 1010.5 1010.4 1.6
19/11:00am 14.3 8.1 9.3 72 2.6 SW 32 43 17 23 1010.6 1010.5 1.6
19/10:30am 13.6 10.0 10.4 81 1.7 WSW 20 28 11 15 1010.6 1010.5 1.6
19/10:00am 11.7 7.0 9.3 85 1.2 WSW 24 39 13 21 1010.6 1010.5 1.6
19/09:47am 10.6 7.3 9.4 92 0.6 W 17 22 9 12 1010.5 1010.4 1.6
19/09:32am 10.5 4.6 9.1 91 0.7 W 30 54 16 29 1010.6 1010.5 1.6
19/09:30am 10.7 4.9 9.3 91 0.7 W 30 54 16 29 1010.6 1010.5 1.4
19/09:28am 10.9 5.8 9.2 89 0.9 W 26 54 14 29 1010.6 1010.5 1.2
19/09:27am 11.1 6.4 9.2 88 1.0 W 24 54 13 29 1010.6 1010.5 1.0
19/09:00am 12.1 8.5 10.0 87 1.1 WSW 19 26 10 14 1010.1 1010.0 15.4
19/08:30am 11.2 8.1 10.3 94 0.5 W 17 20 9 11 1010.2 1010.1 15.4
19/08:03am 10.8 7.2 9.9 94 0.5 WNW 19 26 10 14 1009.8 1009.6 15.4
19/08:01am 10.8 7.2 9.9 94 0.5 WNW 19 26 10 14 1009.8 1009.6 15.4
19/08:00am 10.8 7.2 9.9 94 0.5 WNW 19 26 10 14 1009.8 1009.6 15.2
19/07:34am 10.8 7.2 9.9 94 0.5 W 19 30 10 16 1009.9 1009.7 13.4
19/07:31am 10.8 7.0 9.9 94 0.5 W 20 30 11 16 1009.9 1009.7 13.4
19/07:30am 10.8 7.0 9.9 94 0.5 W 20 30 11 16 1009.9 1009.7 13.4
19/07:15am 10.6 6.8 9.7 94 0.5 WNW 20 32 11 17 1009.7 1009.5 12.4
19/07:00am 10.7 6.9 9.8 94 0.5 W 20 32 11 17 1009.7 1009.5 11.8
19/06:56am 10.8 7.6 9.9 94 0.5 W 17 24 9 13 1009.8 1009.6 11.4
19/06:30am 10.5 7.2 9.6 94 0.5 NW 17 24 9 13 1009.5 1009.3 10.0
19/06:00am 10.3 6.6 9.4 94 0.5 WNW 19 26 10 14 1009.4 1009.2 9.8
19/05:30am 10.0 6.0 9.1 94 0.4 NW 20 28 11 15 1009.4 1009.2 9.8
19/05:00am 10.4 6.1 9.5 94 0.5 WNW 22 32 12 17 1009.7 1009.5 9.6
19/04:30am 10.2 5.9 9.3 94 0.4 NW 22 35 12 19 1009.5 1009.3 9.4
19/04:00am 10.0 6.0 9.1 94 0.4 NW 20 28 11 15 1009.9 1009.7 9.0
19/03:30am 9.9 5.9 9.0 94 0.4 NW 20 28 11 15 1010.3 1010.2 9.0
19/03:00am 9.8 5.8 8.9 94 0.4 NW 20 28 11 15 1010.6 1010.5 9.0
19/02:30am 9.6 4.7 8.5 93 0.5 NW 24 30 13 16 1010.8 1010.7 8.4
19/02:00am 9.7 5.6 8.5 92 0.6 NW 20 30 11 16 1011.1 1011.0 8.4
19/01:30am 9.7 5.6 8.5 92 0.6 NW 20 24 11 13 1011.4 1011.3 8.2
19/01:00am 9.5 5.3 8.3 92 0.6 NW 20 24 11 13 1011.7 1011.6 8.0
19/12:30am 9.2 5.5 8.0 92 0.6 NW 17 24 9 13 1012.0 1011.9 7.8
19/12:00am 9.4 5.8 8.2 92 0.6 NW 17 20 9 11 1012.2 1012.1 7.8
 
Date/Time
EDT
Temp
°C
App
Temp
°C
Dew
Point
°C
Rel
Hum
%
Delta-T
°C
Wind Press
QNH
hPa
Press
MSL
hPa
Rain since
9am
mm
Dir  Spd
km/h
Gust
km/h
Spd
kts
Gust
kts
18/11:30pm 10.1 7.0 9.0 93 0.5 NW 15 24 8 13 1012.6 1012.5 7.4
18/11:00pm 10.4 7.8 9.3 93 0.5 W 13 17 7 9 1013.1 1012.9 6.8
18/10:30pm 10.4 7.3 8.7 89 0.8 W 15 26 8 14 1013.0 1012.8 5.6
18/10:00pm 9.5 5.7 7.6 88 0.9 NW 17 20 9 11 1013.0 1012.8 5.4
18/09:30pm 11.3 7.2 8.7 84 1.3 WNW 20 30 11 16 1013.0 1012.8 5.4
18/09:00pm 11.5 6.6 8.4 81 1.5 W 24 35 13 19 1012.7 1012.6 5.4
18/08:30pm 12.0 8.8 8.5 79 1.7 WNW 15 20 8 11 1012.6 1012.5 5.4
18/08:00pm 12.7 9.0 8.0 73 2.3 WNW 17 24 9 13 1012.5 1012.4 5.4
18/07:30pm 13.7 8.9 7.2 65 3.2 WSW 22 30 12 16 1012.2 1012.1 5.4
18/07:00pm 15.4 9.0 6.9 57 4.2 WSW 30 39 16 21 1012.1 1012.0 5.4
18/06:30pm 15.1 7.9 5.9 54 4.4 WSW 33 44 18 24 1012.0 1011.9 5.4
18/06:00pm 15.6 9.1 6.6 55 4.4 WSW 30 43 16 23 1011.8 1011.7 5.4
18/05:30pm 16.3 9.1 5.9 50 5.0 WSW 33 44 18 24 1011.9 1011.8 5.4
18/05:00pm 15.9 10.0 7.4 57 4.2 WSW 28 39 15 21 1011.9 1011.8 5.4
18/04:30pm 15.4 10.7 10.8 74 2.4 SW 26 44 14 24 1012.1 1012.0 5.4
18/04:00pm 14.8 8.7 8.3 65 3.3 SW 30 37 16 20 1012.2 1012.1 5.2
18/03:30pm 15.6 9.4 9.3 66 3.3 SW 32 44 17 24 1012.2 1012.1 5.2
18/03:00pm 15.8 9.8 8.8 63 3.6 SW 30 39 16 21 1012.2 1012.1 5.2
18/02:30pm 16.4 10.5 7.3 55 4.5 WSW 28 39 15 21 1012.1 1012.0 5.2
18/02:00pm 17.3 12.8 10.0 62 3.9 WSW 24 35 13 19 1012.1 1012.0 5.2
18/01:30pm 15.6 10.3 8.6 63 3.6 WSW 26 33 14 18 1012.2 1012.1 5.2
18/01:00pm 13.2 10.9 10.6 84 1.4 WNW 13 19 7 10 1012.4 1012.3 5.2
18/12:46pm 11.6 9.6 10.3 92 0.7 NW 11 17 6 9 1012.6 1012.5 5.2
18/12:30pm 10.3 3.8 8.2 87 1.0 W 32 56 17 30 1013.0 1012.8 4.8
18/12:26pm 11.0 5.1 8.9 87 1.0 W 30 56 16 30 1013.1 1012.9 3.8
18/12:21pm 14.3 10.5 9.1 71 2.7 WNW 19 56 10 30 1012.6 1012.5 2.6
18/12:00pm 14.0 12.4 11.5 85 1.3 NW 11 17 6 9 1012.4 1012.3 2.6
18/11:40am 10.4 8.4 8.7 89 0.8 WNW 9 15 5 8 1012.6 1012.5 2.6
18/11:30am 10.0 5.8 8.3 89 0.8 WNW 20 39 11 21 1012.7 1012.6 2.4
18/11:27am 10.2 4.6 8.6 90 0.8 W 28 46 15 25 1012.9 1012.7 2.2
18/11:19am 10.6 3.9 8.0 84 1.3 W 33 48 18 26 1012.9 1012.7 1.4
18/11:16am 11.8 6.0 7.9 77 1.9 W 28 48 15 26 1012.9 1012.7 0.6
18/11:00am 15.3 11.2 10.1 71 2.7 WNW 22 30 12 16 1012.3 1012.2 0.4
18/10:30am 14.4 10.5 8.8 69 2.8 WNW 19 26 10 14 1012.2 1012.1 0.4
18/10:00am 13.3 9.9 9.2 76 2.1 WNW 17 28 9 15 1012.1 1012.0 0.4
18/09:30am 11.6 8.6 9.2 85 1.2 NW 15 20 8 11 1011.7 1011.6 0.2
18/09:00am 12.1 9.2 9.7 85 1.2 W 15 19 8 10 1011.7 1011.6 1.8
18/08:30am 10.4 7.6 8.7 89 0.8 NW 13 17 7 9 1011.5 1011.4 1.8
18/08:00am 9.1 6.5 7.7 91 0.7 NW 11 13 6 7 1011.1 1011.0 1.8
18/07:30am 8.7 5.3 7.8 94 0.4 NW 15 20 8 11 1010.7 1010.6 1.8
18/07:00am 8.3 4.8 7.4 94 0.4 NW 15 19 8 10 1010.5 1010.4 1.8
18/06:30am 9.1 6.5 7.9 92 0.6 NW 11 15 6 8 1010.4 1010.3 1.8
18/06:00am 9.4 5.8 8.2 92 0.6 NW 17 24 9 13 1010.3 1010.2 1.8
18/05:30am 9.3 5.7 8.4 94 0.4 NW 17 24 9 13 1010.2 1010.1 1.8
18/05:00am 8.5 5.4 7.3 92 0.6 NW 13 17 7 9 1009.9 1009.7 1.6
18/04:30am 9.6 5.6 8.2 91 0.7 NW 19 24 10 13 1010.1 1010.0 1.6
18/04:00am 10.0 7.6 8.8 92 0.6 W 11 19 6 10 1010.2 1010.1 1.4
18/03:30am 9.2 6.3 8.3 94 0.4 NW 13 15 7 8 1010.3 1010.2 1.2
18/03:00am 10.4 7.8 9.5 94 0.5 W 13 20 7 11 1010.3 1010.2 1.2
18/02:30am 9.4 6.6 8.5 94 0.4 NW 13 17 7 9 1010.4 1010.3 1.0
18/02:00am 9.0 6.1 8.1 94 0.4 NW 13 15 7 8 1010.5 1010.4 1.0
18/01:30am 10.3 7.7 9.4 94 0.5 WNW 13 17 7 9 1010.8 1010.7 1.0
18/01:00am 9.9 6.8 9.0 94 0.4 NW 15 17 8 9 1010.8 1010.7 1.0
18/12:30am 11.4 9.4 10.1 92 0.7 WNW 11 15 6 8 1011.0 1010.9 1.0
18/12:00am 11.5 9.1 10.1 91 0.7 NW 13 17 7 9 1011.0 1010.9 0.6
 
Date/Time
EDT
Temp
°C
App
Temp
°C
Dew
Point
°C
Rel
Hum
%
Delta-T
°C
Wind Press
QNH
hPa
Press
MSL
hPa
Rain since
9am
mm
Dir  Spd
km/h
Gust
km/h
Spd
kts
Gust
kts
17/11:30pm 12.0 9.3 10.2 89 0.9 WNW 15 20 8 11 1011.1 1011.0 0.6
17/11:00pm 12.5 8.1 10.4 87 1.1 WSW 24 37 13 20 1011.6 1011.5 0.6
17/10:30pm 12.6 10.2 10.0 84 1.3 W 13 19 7 10 1011.3 1011.2 0.6
17/10:00pm 12.8 10.7 9.8 82 1.5 NW 11 15 6 8 1011.1 1011.0 0.6
17/09:30pm 14.0 12.0 10.2 78 2.0 NW 11 15 6 8 1011.0 1010.9 0.6
17/09:00pm 15.0 11.4 10.0 72 2.6 W 19 26 10 14 1010.7 1010.6 0.6
17/08:30pm 15.5 12.1 10.5 72 2.6 WSW 19 28 10 15 1010.5 1010.4 0.6
17/08:00pm 15.7 12.1 10.5 71 2.8 WSW 20 26 11 14 1010.3 1010.2 0.6
17/07:30pm 15.6 9.7 10.4 71 2.7 WSW 32 43 17 23 1010.0 1009.8 0.6
17/07:00pm 16.3 10.1 9.5 64 3.6 WSW 32 43 17 23 1009.6 1009.4 0.6
17/06:30pm 17.9 11.4 10.3 61 4.1 WSW 35 46 19 25 1009.4 1009.2 0.6
17/06:00pm 16.1 10.7 13.8 86 1.3 WSW 35 52 19 28 1009.4 1009.2 0.6
17/05:52pm 16.8 11.9 12.5 76 2.4 W 30 52 16 28 1009.3 1009.1 0.4
17/05:30pm 17.1 12.6 12.6 75 2.5 W 28 37 15 20 1009.2 1009.0 0.4
17/05:00pm 16.8 12.5 13.1 79 2.1 W 28 43 15 23 1009.3 1009.1 0.4
17/04:30pm 15.4 9.5 13.6 89 1.0 WSW 37 50 20 27 1009.2 1009.0 0.4
17/04:07pm 17.8 11.8 13.3 75 2.5 WSW 37 50 20 27 1008.7 1008.5 0.4
17/04:01pm 18.1 13.4 14.2 78 2.2 WSW 32 50 17 27 1008.8 1008.6 0.4
17/04:00pm 18.2 13.6 14.7 80 2.0 WSW 32 43 17 23 1008.8 1008.6 0.4
17/03:30pm 16.3 10.8 14.8 91 0.9 WSW 37 52 20 28 1008.9 1008.7 0.4
17/03:23pm 16.4 11.9 15.4 94 0.6 WSW 33 44 18 24 1009.0 1008.8 0.4
17/03:05pm 18.8 13.5 13.2 70 3.2 WSW 33 52 18 28 1008.6 1008.4 0.0
17/03:00pm 20.3 15.9 13.0 63 4.2 WSW 28 35 15 19 1008.6 1008.4 0.0
17/02:30pm 21.7 17.0 12.0 54 5.5 WNW 28 43 15 23 1008.7 1008.5 0.0
17/02:00pm 20.6 16.0 12.3 59 4.7 WNW 28 41 15 22 1009.0 1008.8 0.0
17/01:39pm 20.6 15.8 11.5 56 5.1 WNW 28 46 15 25 1009.1 1008.9 0.0
17/01:30pm 20.5 15.7 11.7 57 4.9 WNW 28 43 15 23 1009.3 1009.1 0.0
17/01:17pm 20.0 14.5 11.8 59 4.6 W 32 50 17 27 1009.3 1009.1 0.0
17/01:00pm 19.5 15.0 11.3 59 4.5 WNW 26 37 14 20 1009.4 1009.2 0.0
17/12:30pm 20.6 15.5 10.7 53 5.4 WNW 28 39 15 21 1009.5 1009.3 0.0
17/12:02pm 20.7 15.9 11.6 56 5.1 NW 28 46 15 25 1009.6 1009.4 0.0
17/12:00pm 20.1 15.5 11.1 56 5.0 NW 26 46 14 25 1009.5 1009.3 0.0
17/11:30am 18.8 13.5 11.4 62 4.1 NW 30 44 16 24 1009.7 1009.5 0.0
17/11:00am 17.9 13.4 11.5 66 3.5 NW 26 33 14 18 1010.0 1009.8 0.0
17/10:30am 17.1 11.9 10.2 64 3.7 NW 28 43 15 23 1010.0 1009.8 0.0
17/10:00am 16.8 12.8 10.4 66 3.4 NW 22 35 12 19 1009.8 1009.6 0.0
17/09:30am 15.9 11.5 10.4 70 2.9 NNW 24 32 13 17 1009.7 1009.5 0.0
17/09:00am 14.9 11.4 10.3 74 2.4 NNW 19 26 10 14 1009.9 1009.7 0.0
17/08:30am 14.3 10.7 9.9 75 2.3 NNW 19 24 10 13 1009.6 1009.4 0.0
17/08:00am 13.9 10.7 9.9 77 2.1 NNW 17 20 9 11 1009.2 1009.0 0.0
17/07:30am 13.6 10.3 9.6 77 2.1 NNW 17 22 9 12 1009.0 1008.8 0.0
17/07:00am 13.4 10.0 9.3 76 2.1 N 17 22 9 12 1008.8 1008.6 0.0
17/06:30am 13.2 9.8 9.1 76 2.1 NNW 17 20 9 11 1008.9 1008.7 0.0
17/06:00am 13.0 9.9 8.9 76 2.1 NNW 15 20 8 11 1008.6 1008.4 0.0

Other Formats:

Comma delimited format used in spreadsheet applications
http://www.bom.gov.au/fwo/IDV60801/IDV60801.94837.axf

JavaScript Object Notation format (JSON) in row-major order
http://www.bom.gov.au/fwo/IDV60801/IDV60801.94837.json